Airfield :
LOGIN :

Register | Disclaimer

   EN    FR    IT 

 










Legend :    VFR   Marginal VFR   IFR   Intensive IFR   Very Intensive IFR
Visi :
Ceiling :
>= 8 km
>= 3000ft
5 to 8 km
1000 to 3000 ft
1500m to 5 km
500 to 1000 ft
800 to 1500m
200 to 500 ft
< 800m
< 200 ft
Symbols :   Thunderstorms  Fog  Heavy snow  Heavy precipitations  Wind > 20 kt
SIGMETs :     Misc.  Thunderstorms  Icing  Turbulence  Mountain Waves  Volcanic Ashes






- Airport Elevation : 124 ft
- IATA code : RNS


LFRN - Rennes

CURRENT METAR :
  • 221400Z AUTO 05007KT 010V080 9999 OVC021 07/03 Q1038 TEMPO BKN012

EXPIRED METARs :
  • 221330Z AUTO 02008KT 9999 OVC022 07/03 Q1038 TEMPO BKN012
  • 221300Z AUTO 04007KT 360V090 9999 OVC022 07/03 Q1038 TEMPO BKN012
  • 221230Z AUTO 06005KT 030V100 9999 OVC022 07/03 Q1038 TEMPO BKN012
  • 221200Z AUTO 07005KT 9999 OVC022 07/03 Q1039 TEMPO BKN012
  • 221130Z AUTO 07007KT 9999 OVC023 06/03 Q1039 TEMPO BKN012

TAF TAF LFRN
Valid from the 22 at 12:00 until the 23 at 12:00 UTC


221100Z 2212/2312 03005KT 9999 OVC020
PROB30
TEMPO 2212/2220 BKN012
BECMG 2220/2222 BKN012
TEMPO 2222/2309 3000 BR BKN005
PROB30
TEMPO 2222/2307 0500 FG VV///
BECMG 2309/2311 08010KT BKN015
ATIS : +33 2 99 67 72 50



MET'MAP, your aeronautical weather chart ! - Copyright ORBIFLY December 2007 - Disclaimer

ORBIFLY MET'MAP TEAM :

Programming & Development : Alexandra Zaïnal
Concept & original design : Baudouin d'Aumeries
Assistance for programming : Marc-Olivier Méhu
Technical & hardware support : Manuel Goepfert

Contact : metmap@orbifly.com




SOURCES & CREDITS :

   NOAA